Gaylord, MI

1:25 AM EST on February 26, 2017 (GMT -0500)
Pine Briar | | Change Station

Elev 1302 ft 45.02 °N, 84.71 °W | Updated 1 minute ago

Light Snow
Light Snow
18.7 °F
Feels Like 19 °F
N
1.0
Wind Variable Wind from SSW

Today
High -- | Low -- °F
--% Chance of Precip.
Yesterday
High -- | Low -- °F
Precip. -- in
Pressure 29.90 in
Visibility 6.0 miles
Clouds Overcast 3500 ft
Windchill 19 °F
Dew Point 16 °F
Humidity 90%
Rainfall 0.00 in
Snow Depth Not available.
7:21 AM 6:22 PM
Waning Crescent, 0% visible
METAR KGLR 260553Z AUTO 28007KT 6SM -SN OVC035 M06/M11 A2983 RMK AO2 SNB0457E19B44 SLP124 P0000 60000 T10611111 11056 21061 51020
Pressure 29.90 in
Visibility 6.0 miles
Clouds Overcast 3500 ft
Windchill 19 °F
Dew Point 16 °F
Humidity 90%
Rainfall 0.00 in
Snow Depth Not available.
7:21 AM 6:22 PM
Waning Crescent, 0% visible
METAR KGLR 260553Z AUTO 28007KT 6SM -SN OVC035 M06/M11 A2983 RMK AO2 SNB0457E19B44 SLP124 P0000 60000 T10611111 11056 21061 51020

Get Your Daily Forecast Email!

Thanks for signing up!

Be on the lookout for a verification email in your inbox.

You'll start receiving the daily forecast at 8 AM.

×

10-Day Weather Forecast

Almanac

Astronomy

Feb. 26, 2017 Rise Set
Actual Time
Civil Twilight
Nautical Twilight
Astronomical Twilight
Moon
Length of Visible Light
Length of Day
Tomorrow will be .
, % of the Moon is Illuminated

Today's Extremes

State Highs State Lows

Community

WunderPhotos

Upload Photos

1,962,540 photos uploaded!

WunderBlog® & News

Nearby

Air Quality

  Air Quality AQ Index Pollutant
Not available.

Snow Depth

Station Depth Elevation

Earthquake Activity

City Distance Mag. Time & Date
Minimum magnitude displayed is 2.5.

Coastal Water Temperatures

Place Temperature

Stations

Nearby Weather Stations

Station Location Temp. Windchill Dew Point Humidity Wind Precip. Elev Updated Type
                   

Watches & Warnings

There are currently no watches in effect.